sensor_id;sensor_type;location;lat;lon;timestamp;noise_LAeq;noise_LA_min;noise_LA_max;noise_LA01;noise_LA95
66335;Laerm;53138;51.496;6.410;2023-02-15T00:00:09;31.42;30.01;32.75;;
66335;Laerm;53138;51.496;6.410;2023-02-15T00:00:22;32.34;30.54;34.17;;
66335;Laerm;53138;51.496;6.410;2023-02-15T00:00:32;32.67;30.41;34.60;;
66335;Laerm;53138;51.496;6.410;2023-02-15T00:00:46;32.60;30.44;34.93;;
66335;Laerm;53138;51.496;6.410;2023-02-15T00:01:06;32.77;31.02;34.93;;
66335;Laerm;53138;51.496;6.410;2023-02-15T00:01:16;32.82;31.06;34.69;;
66335;Laerm;53138;51.496;6.410;2023-02-15T00:01:31;33.14;31.25;36.18;;
66335;Laerm;53138;51.496;6.410;2023-02-15T00:01:42;32.99;31.20;34.79;;
66335;Laerm;53138;51.496;6.410;2023-02-15T00:01:52;33.00;30.76;35.19;;
66335;Laerm;53138;51.496;6.410;2023-02-15T00:02:02;32.62;30.45;34.74;;
66335;Laerm;53138;51.496;6.410;2023-02-15T00:02:13;32.56;30.40;34.99;;
66335;Laerm;53138;51.496;6.410;2023-02-15T00:02:23;32.57;30.84;34.66;;
66335;Laerm;53138;51.496;6.410;2023-02-15T00:02:34;32.77;30.80;39.15;;
66335;Laerm;53138;51.496;6.410;2023-02-15T00:02:44;32.92;30.75;35.12;;
66335;Laerm;53138;51.496;6.410;2023-02-15T00:02:54;32.88;31.01;35.14;;
66335;Laerm;53138;51.496;6.410;2023-02-15T00:03:04;33.08;31.48;35.70;;
66335;Laerm;53138;51.496;6.410;2023-02-15T00:03:15;33.24;31.77;35.26;;
66335;Laerm;53138;51.496;6.410;2023-02-15T00:03:25;33.10;31.27;34.85;;
66335;Laerm;53138;51.496;6.410;2023-02-15T00:03:36;32.59;30.33;34.89;;
66335;Laerm;53138;51.496;6.410;2023-02-15T00:03:49;32.51;30.47;34.04;;
66335;Laerm;53138;51.496;6.410;2023-02-15T00:03:59;32.65;31.09;35.59;;
66335;Laerm;53138;51.496;6.410;2023-02-15T00:04:11;32.87;31.33;35.40;;
66335;Laerm;53138;51.496;6.410;2023-02-15T00:04:23;32.58;30.80;34.37;;
66335;Laerm;53138;51.496;6.410;2023-02-15T00:04:53;31.66;29.70;34.47;;
66335;Laerm;53138;51.496;6.410;2023-02-15T00:05:05;31.02;29.77;32.22;;
66335;Laerm;53138;51.496;6.410;2023-02-15T00:05:16;31.05;29.92;32.45;;
66335;Laerm;53138;51.496;6.410;2023-02-15T00:05:26;31.64;29.96;37.09;;
66335;Laerm;53138;51.496;6.410;2023-02-15T00:05:36;31.66;30.49;33.14;;
66335;Laerm;53138;51.496;6.410;2023-02-15T00:05:46;31.96;30.26;35.45;;
66335;Laerm;53138;51.496;6.410;2023-02-15T00:05:57;31.89;30.58;33.44;;
66335;Laerm;53138;51.496;6.410;2023-02-15T00:06:07;32.97;30.86;36.90;;
66335;Laerm;53138;51.496;6.410;2023-02-15T00:06:17;43.84;36.67;49.43;;
66335;Laerm;53138;51.496;6.410;2023-02-15T00:06:28;37.84;33.11;44.11;;
66335;Laerm;53138;51.496;6.410;2023-02-15T00:06:38;32.98;31.01;34.96;;
66335;Laerm;53138;51.496;6.410;2023-02-15T00:06:50;32.45;31.02;34.63;;
66335;Laerm;53138;51.496;6.410;2023-02-15T00:07:01;32.45;31.20;33.99;;
66335;Laerm;53138;51.496;6.410;2023-02-15T00:07:11;32.73;30.89;34.24;;
66335;Laerm;53138;51.496;6.410;2023-02-15T00:07:22;33.01;31.32;34.56;;
66335;Laerm;53138;51.496;6.410;2023-02-15T00:07:32;32.95;31.23;34.37;;
66335;Laerm;53138;51.496;6.410;2023-02-15T00:07:42;33.00;30.99;34.84;;
66335;Laerm;53138;51.496;6.410;2023-02-15T00:07:52;32.69;30.98;35.20;;
66335;Laerm;53138;51.496;6.410;2023-02-15T00:08:03;32.73;31.09;34.25;;
66335;Laerm;53138;51.496;6.410;2023-02-15T00:08:13;33.12;31.35;35.10;;
66335;Laerm;53138;51.496;6.410;2023-02-15T00:08:23;32.02;30.42;33.77;;
66335;Laerm;53138;51.496;6.410;2023-02-15T00:08:33;32.03;30.57;33.68;;
66335;Laerm;53138;51.496;6.410;2023-02-15T00:08:44;32.15;30.53;33.81;;
66335;Laerm;53138;51.496;6.410;2023-02-15T00:08:57;31.83;30.01;33.70;;
66335;Laerm;53138;51.496;6.410;2023-02-15T00:09:08;31.57;30.16;33.62;;
66335;Laerm;53138;51.496;6.410;2023-02-15T00:09:18;31.48;30.11;32.98;;
66335;Laerm;53138;51.496;6.410;2023-02-15T00:09:28;31.79;30.43;33.62;;
66335;Laerm;53138;51.496;6.410;2023-02-15T00:09:39;31.54;30.04;33.03;;
66335;Laerm;53138;51.496;6.410;2023-02-15T00:09:49;31.40;29.94;32.68;;
66335;Laerm;53138;51.496;6.410;2023-02-15T00:09:59;31.14;29.80;32.60;;
66335;Laerm;53138;51.496;6.410;2023-02-15T00:10:09;31.28;29.80;32.44;;
66335;Laerm;53138;51.496;6.410;2023-02-15T00:10:21;31.17;29.82;32.63;;
66335;Laerm;53138;51.496;6.410;2023-02-15T00:10:33;31.02;29.89;33.20;;
66335;Laerm;53138;51.496;6.410;2023-02-15T00:10:43;31.25;29.63;33.22;;
66335;Laerm;53138;51.496;6.410;2023-02-15T00:11:02;31.38;29.66;32.57;;
66335;Laerm;53138;51.496;6.410;2023-02-15T00:11:13;31.28;29.73;35.11;;
66335;Laerm;53138;51.496;6.410;2023-02-15T00:11:30;31.22;29.88;32.64;;
66335;Laerm;53138;51.496;6.410;2023-02-15T00:12:01;31.31;29.91;33.71;;
66335;Laerm;53138;51.496;6.410;2023-02-15T00:12:11;31.48;30.01;33.45;;
66335;Laerm;53138;51.496;6.410;2023-02-15T00:12:22;31.54;30.11;33.09;;
66335;Laerm;53138;51.496;6.410;2023-02-15T00:12:32;31.37;29.79;32.84;;
66335;Laerm;53138;51.496;6.410;2023-02-15T00:12:42;31.31;30.14;33.28;;
66335;Laerm;53138;51.496;6.410;2023-02-15T00:12:52;31.33;29.95;33.52;;
66335;Laerm;53138;51.496;6.410;2023-02-15T00:13:03;31.28;29.75;32.47;;
66335;Laerm;53138;51.496;6.410;2023-02-15T00:13:13;31.41;30.10;32.65;;
66335;Laerm;53138;51.496;6.410;2023-02-15T00:13:23;31.41;29.79;32.95;;
66335;Laerm;53138;51.496;6.410;2023-02-15T00:13:36;31.61;30.12;33.27;;
66335;Laerm;53138;51.496;6.410;2023-02-15T00:13:48;31.49;30.09;32.72;;
66335;Laerm;53138;51.496;6.410;2023-02-15T00:13:58;31.73;30.35;32.93;;
66335;Laerm;53138;51.496;6.410;2023-02-15T00:14:13;31.88;30.16;33.32;;
66335;Laerm;53138;51.496;6.410;2023-02-15T00:14:23;35.83;30.21;42.04;;
66335;Laerm;53138;51.496;6.410;2023-02-15T00:14:34;40.57;33.67;45.36;;
66335;Laerm;53138;51.496;6.410;2023-02-15T00:14:44;33.94;30.83;38.75;;
66335;Laerm;53138;51.496;6.410;2023-02-15T00:14:54;31.90;30.65;33.16;;
66335;Laerm;53138;51.496;6.410;2023-02-15T00:15:04;31.96;30.25;33.26;;
66335;Laerm;53138;51.496;6.410;2023-02-15T00:15:14;31.76;30.43;34.40;;
66335;Laerm;53138;51.496;6.410;2023-02-15T00:15:25;31.80;29.99;33.37;;
66335;Laerm;53138;51.496;6.410;2023-02-15T00:15:35;32.26;30.67;33.86;;
66335;Laerm;53138;51.496;6.410;2023-02-15T00:15:46;32.51;30.58;35.54;;
66335;Laerm;53138;51.496;6.410;2023-02-15T00:16:02;32.18;30.83;34.46;;
66335;Laerm;53138;51.496;6.410;2023-02-15T00:16:13;31.67;29.98;33.52;;
66335;Laerm;53138;51.496;6.410;2023-02-15T00:16:23;31.42;30.21;32.82;;
66335;Laerm;53138;51.496;6.410;2023-02-15T00:16:34;31.59;30.44;33.21;;
66335;Laerm;53138;51.496;6.410;2023-02-15T00:16:45;32.01;30.47;34.46;;
66335;Laerm;53138;51.496;6.410;2023-02-15T00:16:55;32.32;30.78;34.07;;
66335;Laerm;53138;51.496;6.410;2023-02-15T00:17:09;32.46;30.72;34.47;;
66335;Laerm;53138;51.496;6.410;2023-02-15T00:17:20;31.66;30.33;32.97;;
66335;Laerm;53138;51.496;6.410;2023-02-15T00:17:30;31.58;30.15;32.79;;
66335;Laerm;53138;51.496;6.410;2023-02-15T00:17:40;31.20;29.86;32.65;;
66335;Laerm;53138;51.496;6.410;2023-02-15T00:17:51;31.49;29.77;33.09;;
66335;Laerm;53138;51.496;6.410;2023-02-15T00:18:01;32.82;30.56;36.43;;
66335;Laerm;53138;51.496;6.410;2023-02-15T00:18:11;37.76;33.60;42.77;;
66335;Laerm;53138;51.496;6.410;2023-02-15T00:18:21;38.43;33.65;43.46;;
66335;Laerm;53138;51.496;6.410;2023-02-15T00:18:31;34.27;30.90;40.18;;
66335;Laerm;53138;51.496;6.410;2023-02-15T00:18:42;32.32;30.41;33.84;;
66335;Laerm;53138;51.496;6.410;2023-02-15T00:18:52;32.22;30.66;34.27;;
66335;Laerm;53138;51.496;6.410;2023-02-15T00:19:02;32.36;30.92;34.09;;
66335;Laerm;53138;51.496;6.410;2023-02-15T00:19:13;32.35;30.47;33.86;;
66335;Laerm;53138;51.496;6.410;2023-02-15T00:19:24;32.39;30.75;34.96;;
66335;Laerm;53138;51.496;6.410;2023-02-15T00:19:34;32.52;30.32;35.03;;
66335;Laerm;53138;51.496;6.410;2023-02-15T00:19:44;32.41;29.80;34.65;;
66335;Laerm;53138;51.496;6.410;2023-02-15T00:19:54;32.44;30.63;34.45;;
66335;Laerm;53138;51.496;6.410;2023-02-15T00:20:05;32.41;30.92;34.42;;
66335;Laerm;53138;51.496;6.410;2023-02-15T00:20:15;32.27;30.48;34.38;;
66335;Laerm;53138;51.496;6.410;2023-02-15T00:20:26;32.42;30.79;34.96;;
66335;Laerm;53138;51.496;6.410;2023-02-15T00:20:37;32.43;30.68;34.45;;
66335;Laerm;53138;51.496;6.410;2023-02-15T00:20:47;33.32;30.65;49.94;;
66335;Laerm;53138;51.496;6.410;2023-02-15T00:20:58;32.49;30.51;34.62;;
66335;Laerm;53138;51.496;6.410;2023-02-15T00:21:09;32.30;30.50;34.81;;
66335;Laerm;53138;51.496;6.410;2023-02-15T00:21:19;32.35;30.50;34.59;;
66335;Laerm;53138;51.496;6.410;2023-02-15T00:21:30;32.54;30.56;43.09;;
66335;Laerm;53138;51.496;6.410;2023-02-15T00:21:41;32.36;30.86;34.06;;
66335;Laerm;53138;51.496;6.410;2023-02-15T00:21:51;32.52;30.91;34.31;;
66335;Laerm;53138;51.496;6.410;2023-02-15T00:22:01;32.54;30.94;34.37;;
66335;Laerm;53138;51.496;6.410;2023-02-15T00:22:11;32.67;31.02;34.52;;
66335;Laerm;53138;51.496;6.410;2023-02-15T00:22:22;32.54;30.40;34.22;;
66335;Laerm;53138;51.496;6.410;2023-02-15T00:22:32;31.81;29.52;34.08;;
66335;Laerm;53138;51.496;6.410;2023-02-15T00:22:45;31.40;30.10;33.32;;
66335;Laerm;53138;51.496;6.410;2023-02-15T00:22:55;31.56;29.87;36.61;;
66335;Laerm;53138;51.496;6.410;2023-02-15T00:23:05;31.51;30.08;32.90;;
66335;Laerm;53138;51.496;6.410;2023-02-15T00:23:15;31.67;30.11;33.24;;
66335;Laerm;53138;51.496;6.410;2023-02-15T00:23:26;31.85;29.81;33.22;;
66335;Laerm;53138;51.496;6.410;2023-02-15T00:23:36;33.19;30.92;37.81;;
66335;Laerm;53138;51.496;6.410;2023-02-15T00:23:49;33.11;30.31;35.68;;
66335;Laerm;53138;51.496;6.410;2023-02-15T00:24:00;33.25;31.14;36.90;;
66335;Laerm;53138;51.496;6.410;2023-02-15T00:24:11;33.96;31.85;37.76;;
66335;Laerm;53138;51.496;6.410;2023-02-15T00:24:21;32.58;30.85;35.05;;
66335;Laerm;53138;51.496;6.410;2023-02-15T00:24:32;33.16;31.11;35.39;;
66335;Laerm;53138;51.496;6.410;2023-02-15T00:24:42;32.84;31.14;35.60;;
66335;Laerm;53138;51.496;6.410;2023-02-15T00:24:57;32.86;30.87;35.63;;
66335;Laerm;53138;51.496;6.410;2023-02-15T00:25:07;34.40;31.46;38.17;;
66335;Laerm;53138;51.496;6.410;2023-02-15T00:25:18;34.82;31.61;39.53;;
66335;Laerm;53138;51.496;6.410;2023-02-15T00:25:28;33.58;30.67;37.07;;
66335;Laerm;53138;51.496;6.410;2023-02-15T00:25:38;33.67;31.39;37.40;;
66335;Laerm;53138;51.496;6.410;2023-02-15T00:25:48;34.15;31.47;38.33;;
66335;Laerm;53138;51.496;6.410;2023-02-15T00:26:05;33.36;31.08;37.73;;
66335;Laerm;53138;51.496;6.410;2023-02-15T00:26:15;32.37;30.51;33.85;;
66335;Laerm;53138;51.496;6.410;2023-02-15T00:26:25;32.54;30.08;34.73;;
66335;Laerm;53138;51.496;6.410;2023-02-15T00:26:37;33.14;31.11;36.36;;
66335;Laerm;53138;51.496;6.410;2023-02-15T00:26:48;32.97;31.06;35.58;;
66335;Laerm;53138;51.496;6.410;2023-02-15T00:27:01;33.06;31.20;36.61;;
66335;Laerm;53138;51.496;6.410;2023-02-15T00:27:12;32.06;30.51;33.50;;
66335;Laerm;53138;51.496;6.410;2023-02-15T00:27:24;32.11;30.42;33.69;;
66335;Laerm;53138;51.496;6.410;2023-02-15T00:27:34;32.11;30.66;33.80;;
66335;Laerm;53138;51.496;6.410;2023-02-15T00:27:44;32.23;30.60;33.81;;
66335;Laerm;53138;51.496;6.410;2023-02-15T00:27:55;37.64;31.10;45.13;;
66335;Laerm;53138;51.496;6.410;2023-02-15T00:28:05;43.39;34.03;49.95;;
66335;Laerm;53138;51.496;6.410;2023-02-15T00:28:15;33.20;30.45;36.06;;
66335;Laerm;53138;51.496;6.410;2023-02-15T00:28:25;31.76;30.42;33.25;;
66335;Laerm;53138;51.496;6.410;2023-02-15T00:28:36;31.56;29.86;32.79;;
66335;Laerm;53138;51.496;6.410;2023-02-15T00:28:46;31.91;30.33;33.88;;
66335;Laerm;53138;51.496;6.410;2023-02-15T00:28:56;31.85;30.38;33.06;;
66335;Laerm;53138;51.496;6.410;2023-02-15T00:29:09;32.07;30.61;33.55;;
66335;Laerm;53138;51.496;6.410;2023-02-15T00:29:20;33.28;30.43;44.13;;
66335;Laerm;53138;51.496;6.410;2023-02-15T00:29:33;32.21;29.63;37.47;;
66335;Laerm;53138;51.496;6.410;2023-02-15T00:29:43;31.93;30.16;38.51;;
66335;Laerm;53138;51.496;6.410;2023-02-15T00:29:53;31.76;29.95;34.32;;
66335;Laerm;53138;51.496;6.410;2023-02-15T00:30:03;31.63;29.86;33.74;;
66335;Laerm;53138;51.496;6.410;2023-02-15T00:30:14;31.56;29.88;34.54;;
66335;Laerm;53138;51.496;6.410;2023-02-15T00:30:24;31.63;30.28;34.19;;
66335;Laerm;53138;51.496;6.410;2023-02-15T00:30:34;31.52;30.12;33.19;;
66335;Laerm;53138;51.496;6.410;2023-02-15T00:30:44;31.61;30.14;34.21;;
66335;Laerm;53138;51.496;6.410;2023-02-15T00:30:54;31.61;30.42;33.17;;
66335;Laerm;53138;51.496;6.410;2023-02-15T00:31:09;31.62;30.35;33.55;;
66335;Laerm;53138;51.496;6.410;2023-02-15T00:31:20;31.36;29.49;32.47;;
66335;Laerm;53138;51.496;6.410;2023-02-15T00:31:31;32.29;30.45;35.56;;
66335;Laerm;53138;51.496;6.410;2023-02-15T00:31:41;31.75;28.84;34.55;;
66335;Laerm;53138;51.496;6.410;2023-02-15T00:31:51;31.67;30.01;33.64;;
66335;Laerm;53138;51.496;6.410;2023-02-15T00:32:02;31.87;30.36;33.38;;
66335;Laerm;53138;51.496;6.410;2023-02-15T00:32:12;31.85;30.33;33.29;;
66335;Laerm;53138;51.496;6.410;2023-02-15T00:32:22;32.13;30.29;33.74;;
66335;Laerm;53138;51.496;6.410;2023-02-15T00:32:32;31.91;30.38;33.38;;
66335;Laerm;53138;51.496;6.410;2023-02-15T00:32:43;32.11;30.45;33.89;;
66335;Laerm;53138;51.496;6.410;2023-02-15T00:32:53;32.26;30.81;34.16;;
66335;Laerm;53138;51.496;6.410;2023-02-15T00:33:03;31.78;30.40;33.38;;
66335;Laerm;53138;51.496;6.410;2023-02-15T00:33:13;31.91;30.26;34.61;;
66335;Laerm;53138;51.496;6.410;2023-02-15T00:33:24;31.81;30.39;33.43;;
66335;Laerm;53138;51.496;6.410;2023-02-15T00:33:35;31.81;30.29;33.68;;
66335;Laerm;53138;51.496;6.410;2023-02-15T00:33:45;31.81;30.36;33.44;;
66335;Laerm;53138;51.496;6.410;2023-02-15T00:33:56;31.53;30.26;33.06;;
66335;Laerm;53138;51.496;6.410;2023-02-15T00:34:11;31.49;29.91;32.99;;
66335;Laerm;53138;51.496;6.410;2023-02-15T00:34:23;31.31;29.79;32.65;;
66335;Laerm;53138;51.496;6.410;2023-02-15T00:34:33;31.49;30.09;33.24;;
66335;Laerm;53138;51.496;6.410;2023-02-15T00:34:43;31.78;30.29;33.57;;
66335;Laerm;53138;51.496;6.410;2023-02-15T00:34:54;32.26;30.71;33.85;;
66335;Laerm;53138;51.496;6.410;2023-02-15T00:35:04;32.19;30.71;34.29;;
66335;Laerm;53138;51.496;6.410;2023-02-15T00:35:14;32.30;30.57;34.57;;
66335;Laerm;53138;51.496;6.410;2023-02-15T00:35:24;32.42;30.75;34.49;;
66335;Laerm;53138;51.496;6.410;2023-02-15T00:35:34;32.46;30.52;34.88;;
66335;Laerm;53138;51.496;6.410;2023-02-15T00:35:45;32.31;30.84;34.18;;
66335;Laerm;53138;51.496;6.410;2023-02-15T00:35:58;32.57;30.63;34.69;;
66335;Laerm;53138;51.496;6.410;2023-02-15T00:36:09;32.53;30.47;34.65;;
66335;Laerm;53138;51.496;6.410;2023-02-15T00:36:19;32.44;30.84;34.64;;
66335;Laerm;53138;51.496;6.410;2023-02-15T00:36:32;32.42;30.42;34.38;;
66335;Laerm;53138;51.496;6.410;2023-02-15T00:36:43;32.29;30.63;34.29;;
66335;Laerm;53138;51.496;6.410;2023-02-15T00:36:53;32.27;30.69;34.39;;
66335;Laerm;53138;51.496;6.410;2023-02-15T00:37:03;32.34;30.48;35.12;;
66335;Laerm;53138;51.496;6.410;2023-02-15T00:37:13;32.70;31.21;35.38;;
66335;Laerm;53138;51.496;6.410;2023-02-15T00:37:24;32.95;30.77;35.17;;
66335;Laerm;53138;51.496;6.410;2023-02-15T00:37:34;33.04;30.87;35.12;;
66335;Laerm;53138;51.496;6.410;2023-02-15T00:37:44;33.07;30.78;35.33;;
66335;Laerm;53138;51.496;6.410;2023-02-15T00:37:57;33.12;31.49;34.92;;
66335;Laerm;53138;51.496;6.410;2023-02-15T00:38:08;33.14;31.20;35.44;;
66335;Laerm;53138;51.496;6.410;2023-02-15T00:38:18;33.27;31.30;35.12;;
66335;Laerm;53138;51.496;6.410;2023-02-15T00:38:28;33.35;31.35;35.35;;
66335;Laerm;53138;51.496;6.410;2023-02-15T00:38:39;33.33;31.61;35.94;;
66335;Laerm;53138;51.496;6.410;2023-02-15T00:38:51;33.40;31.32;35.21;;
66335;Laerm;53138;51.496;6.410;2023-02-15T00:39:02;33.32;31.35;35.17;;
66335;Laerm;53138;51.496;6.410;2023-02-15T00:39:12;33.45;31.63;35.71;;
66335;Laerm;53138;51.496;6.410;2023-02-15T00:39:22;32.70;30.56;34.68;;
66335;Laerm;53138;51.496;6.410;2023-02-15T00:39:36;32.73;31.18;35.87;;
66335;Laerm;53138;51.496;6.410;2023-02-15T00:39:46;32.33;29.87;34.57;;
66335;Laerm;53138;51.496;6.410;2023-02-15T00:39:56;33.10;30.24;47.97;;
66335;Laerm;53138;51.496;6.410;2023-02-15T00:40:06;31.46;29.91;33.29;;
66335;Laerm;53138;51.496;6.410;2023-02-15T00:40:19;31.39;29.86;32.61;;
66335;Laerm;53138;51.496;6.410;2023-02-15T00:40:29;31.28;29.65;33.59;;
66335;Laerm;53138;51.496;6.410;2023-02-15T00:40:39;31.19;29.85;32.60;;
66335;Laerm;53138;51.496;6.410;2023-02-15T00:40:56;31.14;29.87;33.56;;
66335;Laerm;53138;51.496;6.410;2023-02-15T00:41:07;31.18;29.74;32.65;;
66335;Laerm;53138;51.496;6.410;2023-02-15T00:41:17;31.07;29.86;32.19;;
66335;Laerm;53138;51.496;6.410;2023-02-15T00:41:28;31.02;29.19;32.72;;
66335;Laerm;53138;51.496;6.410;2023-02-15T00:41:40;31.06;29.37;32.38;;
66335;Laerm;53138;51.496;6.410;2023-02-15T00:41:51;31.37;30.09;33.13;;
66335;Laerm;53138;51.496;6.410;2023-02-15T00:42:01;31.23;29.94;33.23;;
66335;Laerm;53138;51.496;6.410;2023-02-15T00:42:11;31.20;29.67;32.33;;
66335;Laerm;53138;51.496;6.410;2023-02-15T00:42:21;31.28;29.88;33.83;;
66335;Laerm;53138;51.496;6.410;2023-02-15T00:42:31;31.02;29.68;32.20;;
66335;Laerm;53138;51.496;6.410;2023-02-15T00:42:42;30.97;29.81;32.29;;
66335;Laerm;53138;51.496;6.410;2023-02-15T00:42:52;30.98;29.80;32.63;;
66335;Laerm;53138;51.496;6.410;2023-02-15T00:43:02;31.02;29.70;33.84;;
66335;Laerm;53138;51.496;6.410;2023-02-15T00:43:12;30.87;29.56;31.96;;
66335;Laerm;53138;51.496;6.410;2023-02-15T00:43:22;30.77;29.40;33.49;;
66335;Laerm;53138;51.496;6.410;2023-02-15T00:43:33;31.36;29.76;37.51;;
66335;Laerm;53138;51.496;6.410;2023-02-15T00:43:47;31.01;29.26;36.28;;
66335;Laerm;53138;51.496;6.410;2023-02-15T00:43:57;30.89;29.41;32.19;;
66335;Laerm;53138;51.496;6.410;2023-02-15T00:44:07;30.81;29.31;31.95;;
66335;Laerm;53138;51.496;6.410;2023-02-15T00:44:18;30.95;29.58;32.82;;
66335;Laerm;53138;51.496;6.410;2023-02-15T00:44:28;31.34;30.12;33.61;;
66335;Laerm;53138;51.496;6.410;2023-02-15T00:44:38;31.37;29.96;32.74;;
66335;Laerm;53138;51.496;6.410;2023-02-15T00:44:48;31.22;30.07;32.87;;
66335;Laerm;53138;51.496;6.410;2023-02-15T00:44:58;31.50;30.00;33.04;;
66335;Laerm;53138;51.496;6.410;2023-02-15T00:45:09;31.12;30.07;32.32;;
66335;Laerm;53138;51.496;6.410;2023-02-15T00:45:19;31.04;29.34;32.83;;
66335;Laerm;53138;51.496;6.410;2023-02-15T00:45:31;30.84;29.48;32.13;;
66335;Laerm;53138;51.496;6.410;2023-02-15T00:45:41;31.15;29.74;35.25;;
66335;Laerm;53138;51.496;6.410;2023-02-15T00:45:51;30.76;29.60;32.43;;
66335;Laerm;53138;51.496;6.410;2023-02-15T00:46:02;31.04;29.26;32.22;;
66335;Laerm;53138;51.496;6.410;2023-02-15T00:46:12;31.21;29.83;33.37;;
66335;Laerm;53138;51.496;6.410;2023-02-15T00:46:22;32.24;30.52;36.19;;
66335;Laerm;53138;51.496;6.410;2023-02-15T00:46:33;32.03;30.22;34.50;;
66335;Laerm;53138;51.496;6.410;2023-02-15T00:46:43;31.77;30.31;33.59;;
66335;Laerm;53138;51.496;6.410;2023-02-15T00:46:53;32.04;30.11;36.89;;
66335;Laerm;53138;51.496;6.410;2023-02-15T00:47:04;31.86;29.94;35.59;;
66335;Laerm;53138;51.496;6.410;2023-02-15T00:47:16;31.78;29.78;35.75;;
66335;Laerm;53138;51.496;6.410;2023-02-15T00:47:29;31.55;29.75;37.48;;
66335;Laerm;53138;51.496;6.410;2023-02-15T00:47:39;33.05;30.25;39.29;;
66335;Laerm;53138;51.496;6.410;2023-02-15T00:47:50;34.43;30.25;39.79;;
66335;Laerm;53138;51.496;6.410;2023-02-15T00:48:00;35.65;30.52;43.12;;
66335;Laerm;53138;51.496;6.410;2023-02-15T00:48:13;37.10;30.65;44.75;;
66335;Laerm;53138;51.496;6.410;2023-02-15T00:48:23;36.33;31.19;42.56;;
66335;Laerm;53138;51.496;6.410;2023-02-15T00:48:34;35.58;30.71;43.59;;
66335;Laerm;53138;51.496;6.410;2023-02-15T00:48:44;32.86;30.41;38.99;;
66335;Laerm;53138;51.496;6.410;2023-02-15T00:48:57;31.39;29.89;33.30;;
66335;Laerm;53138;51.496;6.410;2023-02-15T00:49:08;33.15;29.90;38.85;;
66335;Laerm;53138;51.496;6.410;2023-02-15T00:49:18;32.18;30.62;34.48;;
66335;Laerm;53138;51.496;6.410;2023-02-15T00:49:28;32.34;30.22;35.32;;
66335;Laerm;53138;51.496;6.410;2023-02-15T00:49:38;32.57;30.57;36.49;;
66335;Laerm;53138;51.496;6.410;2023-02-15T00:49:48;32.90;30.61;41.82;;
66335;Laerm;53138;51.496;6.410;2023-02-15T00:49:59;32.31;30.39;35.48;;
66335;Laerm;53138;51.496;6.410;2023-02-15T00:50:13;32.24;30.41;35.83;;
66335;Laerm;53138;51.496;6.410;2023-02-15T00:50:23;32.05;30.05;34.03;;
66335;Laerm;53138;51.496;6.410;2023-02-15T00:50:33;32.26;30.68;35.64;;
66335;Laerm;53138;51.496;6.410;2023-02-15T00:50:46;32.23;30.54;34.13;;
66335;Laerm;53138;51.496;6.410;2023-02-15T00:50:58;32.12;30.62;34.64;;
66335;Laerm;53138;51.496;6.410;2023-02-15T00:51:09;32.12;30.21;34.14;;
66335;Laerm;53138;51.496;6.410;2023-02-15T00:51:19;32.17;30.28;34.64;;
66335;Laerm;53138;51.496;6.410;2023-02-15T00:51:32;32.06;30.30;34.84;;
66335;Laerm;53138;51.496;6.410;2023-02-15T00:51:43;32.17;30.49;34.92;;
66335;Laerm;53138;51.496;6.410;2023-02-15T00:51:53;32.16;30.50;34.38;;
66335;Laerm;53138;51.496;6.410;2023-02-15T00:52:03;32.11;30.31;34.21;;
66335;Laerm;53138;51.496;6.410;2023-02-15T00:52:13;32.02;30.52;34.10;;
66335;Laerm;53138;51.496;6.410;2023-02-15T00:52:23;32.10;30.27;34.15;;
66335;Laerm;53138;51.496;6.410;2023-02-15T00:52:34;32.09;30.33;33.77;;
66335;Laerm;53138;51.496;6.410;2023-02-15T00:52:44;32.14;30.51;34.26;;
66335;Laerm;53138;51.496;6.410;2023-02-15T00:52:54;32.16;30.25;34.01;;
66335;Laerm;53138;51.496;6.410;2023-02-15T00:53:04;32.18;30.26;34.31;;
66335;Laerm;53138;51.496;6.410;2023-02-15T00:53:15;31.88;30.00;33.98;;
66335;Laerm;53138;51.496;6.410;2023-02-15T00:53:25;32.03;29.75;48.94;;
66335;Laerm;53138;51.496;6.410;2023-02-15T00:53:39;30.89;29.50;32.27;;
66335;Laerm;53138;51.496;6.410;2023-02-15T00:53:49;30.98;29.81;32.17;;
66335;Laerm;53138;51.496;6.410;2023-02-15T00:53:59;30.92;29.67;32.20;;
66335;Laerm;53138;51.496;6.410;2023-02-15T00:54:10;30.78;29.35;32.13;;
66335;Laerm;53138;51.496;6.410;2023-02-15T00:54:20;31.09;29.77;33.31;;
66335;Laerm;53138;51.496;6.410;2023-02-15T00:54:30;31.10;29.74;32.47;;
66335;Laerm;53138;51.496;6.410;2023-02-15T00:54:40;31.08;29.72;32.50;;
66335;Laerm;53138;51.496;6.410;2023-02-15T00:54:50;30.87;29.54;33.28;;
66335;Laerm;53138;51.496;6.410;2023-02-15T00:55:03;30.92;29.37;32.36;;
66335;Laerm;53138;51.496;6.410;2023-02-15T00:55:13;30.84;29.66;32.03;;
66335;Laerm;53138;51.496;6.410;2023-02-15T00:55:23;30.91;29.55;32.32;;
66335;Laerm;53138;51.496;6.410;2023-02-15T00:55:33;30.93;29.51;32.32;;
66335;Laerm;53138;51.496;6.410;2023-02-15T00:55:44;31.07;30.00;37.04;;
66335;Laerm;53138;51.496;6.410;2023-02-15T00:55:54;31.00;29.96;32.21;;
66335;Laerm;53138;51.496;6.410;2023-02-15T00:56:05;30.99;29.88;32.59;;
66335;Laerm;53138;51.496;6.410;2023-02-15T00:56:15;30.94;29.75;33.39;;
66335;Laerm;53138;51.496;6.410;2023-02-15T00:56:25;30.78;29.62;32.02;;
66335;Laerm;53138;51.496;6.410;2023-02-15T00:56:35;30.86;29.41;33.64;;
66335;Laerm;53138;51.496;6.410;2023-02-15T00:56:45;30.92;29.48;32.96;;
66335;Laerm;53138;51.496;6.410;2023-02-15T00:56:55;31.08;29.75;32.95;;
66335;Laerm;53138;51.496;6.410;2023-02-15T00:57:06;31.51;29.86;33.09;;
66335;Laerm;53138;51.496;6.410;2023-02-15T00:57:16;31.89;30.67;33.32;;
66335;Laerm;53138;51.496;6.410;2023-02-15T00:57:26;31.26;30.06;32.48;;
66335;Laerm;53138;51.496;6.410;2023-02-15T00:57:36;30.85;29.58;32.58;;
66335;Laerm;53138;51.496;6.410;2023-02-15T00:57:46;31.09;29.71;32.63;;
66335;Laerm;53138;51.496;6.410;2023-02-15T00:57:57;31.50;29.82;32.90;;
66335;Laerm;53138;51.496;6.410;2023-02-15T00:58:10;31.26;29.77;32.88;;
66335;Laerm;53138;51.496;6.410;2023-02-15T00:58:20;30.93;29.53;32.27;;
66335;Laerm;53138;51.496;6.410;2023-02-15T00:58:30;30.97;29.68;32.52;;
66335;Laerm;53138;51.496;6.410;2023-02-15T00:58:41;30.78;29.02;32.15;;
66335;Laerm;53138;51.496;6.410;2023-02-15T00:58:51;30.75;29.48;33.11;;
66335;Laerm;53138;51.496;6.410;2023-02-15T00:59:01;30.87;29.52;32.39;;
66335;Laerm;53138;51.496;6.410;2023-02-15T00:59:12;31.00;29.67;32.12;;
66335;Laerm;53138;51.496;6.410;2023-02-15T00:59:22;31.96;30.25;33.71;;
66335;Laerm;53138;51.496;6.410;2023-02-15T00:59:34;32.45;30.47;34.71;;
66335;Laerm;53138;51.496;6.410;2023-02-15T00:59:45;32.46;30.36;34.29;;
66335;Laerm;53138;51.496;6.410;2023-02-15T00:59:55;31.89;30.29;33.63;;
66335;Laerm;53138;51.496;6.410;2023-02-15T01:00:05;34.26;30.74;37.56;;
66335;Laerm;53138;51.496;6.410;2023-02-15T01:00:16;39.04;34.76;42.75;;
66335;Laerm;53138;51.496;6.410;2023-02-15T01:00:26;35.99;33.02;40.43;;
66335;Laerm;53138;51.496;6.410;2023-02-15T01:00:36;32.57;30.36;37.48;;
66335;Laerm;53138;51.496;6.410;2023-02-15T01:00:47;31.52;29.93;34.00;;
66335;Laerm;53138;51.496;6.410;2023-02-15T01:01:04;31.45;30.07;33.70;;
66335;Laerm;53138;51.496;6.410;2023-02-15T01:01:16;31.28;29.58;34.80;;
66335;Laerm;53138;51.496;6.410;2023-02-15T01:01:27;31.31;29.67;33.05;;